Dingmans Ferry, PA

12:09 PM EST on Novembru 17, 2017 (GMT -0500)
Milford Road | | Change Station

Elev 904 ft 41.23 °N, 74.91 °W | Updated 21 seconds ago

ċar
ċar
41.2 °F
Feels Like 41 °F
N
0.0
rih varjabbli rih from Punent Majistru
Gusts 0.0 mph

Illum
High -- | Low -- °F
--% Chance of Precip.
Yesterday
High -- | Low -- °F
Precip. -- in
pressjoni 30.09 in
vizibilita 10.0 mili
s ċar
kesha tar-rih 41 °F
punt ta' nida 30 °F
umdita 63%
Rainfall 0.00 in
Snow Depth Not available.
6:50 AM 4:38 PM
Waning Crescent, 1% visible
METAR KFWN 171653Z AUTO 29009G16KT 260V330 10SM -RA CLR 06/M05 A3008 RMK AO2 RAB50 SLP188 P0000 T00561050
pressjoni 30.09 in
vizibilita 10.0 mili
s ċar
kesha tar-rih 41 °F
punt ta' nida 30 °F
umdita 63%
Rainfall 0.00 in
Snow Depth Not available.
6:50 AM 4:38 PM
Waning Crescent, 1% visible
METAR KFWN 171653Z AUTO 29009G16KT 260V330 10SM -RA CLR 06/M05 A3008 RMK AO2 RAB50 SLP188 P0000 T00561050

Get Severe Weather Alerts

Thanks for signing up!

Be on the lookout for a verification email in your inbox.

You'll start receiving the daily forecast at 6 AM.

×

10-Day Weather Forecast

Almanac

Astronomy

Nov. 17, 2017 Rise Set
Actual Time
Civil Twilight
Nautical Twilight
Astronomical Twilight
Moon
Length Of Visible Light
Length of Day
Tomorrow will be .
, % of the Moon is Illuminated

Today's Extremes

State Highs State Lows

Community

WunderPhotos

Category 6

Welcome to Category 6. This is the collective home for Weather Underground's featured writeups by Dr. Jeff Masters (right), Bob Henson (left), Chris Burt, and other regular contributors.

Nearby

Air Quality

  Air Quality AQ Index Pollutant
Not available.

Snow Depth

Station Depth Elevation

Earthquake Activity

City Distance Mag. Time & Date
Minimum magnitude displayed is 2.5.

Coastal Water Temperatures

Post temperatura

Stations

Nearby Weather Stations

Station Location Temp kesha tar-rih punt ta' nida umdita rih Precip. Elev aggornat Type
                   

Watches & Warnings

There are currently no watches in effect.